Airborne Airpark
KILN : now visible

Airfield :











YOU CAN JOIN US ON...

 
LOGIN :

Register | Disclaimer

   EN    FR    IT 

 









Legend :    VFR   Marginal VFR   IFR   Intensive IFR   Very Intensive IFR
Visi :
Ceiling :
>= 8 km
>= 3000ft
5 to 8 km
1000 to 3000 ft
1500m to 5 km
500 to 1000 ft
800 to 1500m
200 to 500 ft
< 800m
< 200 ft
Symbols :   Thunderstorms  Fog  Heavy snow  Heavy precipitations  Wind > 20 kt






- Airport Elevation : 1077 ft


KILN - Airborne Airpark

CURRENT METAR :
  • 271754Z AUTO 24022G33KT 10SM FEW021 BKN029 OVC070 12/09 A2942 RMK AO2 PK WND 23038/1722 RAB15E46 SLP969 P0003 60004 T01170089 10150 20094 53000

EXPIRED METARs :
  • 271736Z AUTO 24024G30KT 3SM -RA FEW022 BKN043 OVC070 12/09 A2942 RMK AO2 PK WND 23038/1722 RAB15 P0003 T01170089
  • 271723Z AUTO 24031G38KT 1 1/2SM RA FEW023 SCT028 BKN042 12/08 A2942 RMK AO2 PK WND 23038/1722 VIS 3/4V5 RAB15 P0000 T01170083
  • 271654Z AUTO 23026G36KT 10SM FEW025 SCT030 SCT035 15/09 A2939 RMK AO2 PK WND 23036/1653 SLP958 T01500089
  • 271615Z AUTO 23023G32KT 10SM SCT017 BKN025 OVC080 14/11 A2943 RMK AO2 PK WND 23032/1615 T01390106
  • 271600Z AUTO 24015G22KT 10SM FEW012 BKN044 OVC085 13/11 A2942 RMK AO2 T01330111
  • 271512Z AUTO 20017G22KT 9SM -RA BKN017 BKN023 OVC060 13/11 A2941 RMK AO2 RAB11 P0000 T01330111

TAF KILN
Valid from the 27 at 18:00 until the 28 at 18:00 UTC


271738Z 2718/2818 22019G34KT P6SM VCSH SCT018 BKN025
FM272200 24018G25KT 5SM BR VCSH OVC008
FM280200 29013KT P6SM SCT008 OVC012
FM280800 29007KT P6SM OVC015
TEMPO 2812/2816 5SM BR OVC012
KZID FIR / North America



MET'MAP, your aeronautical weather chart ! - Copyright ORBIFLY December 2007 - Disclaimer

ORBIFLY MET'MAP TEAM :

Programming & Development : Alexandra Zaïnal
Original concept : Baudouin d'Aumeries
Technical & hardware support : Manuel Goepfert
Assistance : Marc-Olivier Méhu




SOURCES & CREDITS :

   NOAA       Earth
Advisory